Observation data for Jayton on 07/04/2020      Previous  Date  Next       Current Mesonet Observations  Soil Data  Daily Summary Page  Observations in Plain Language
KJTS 040500Z 13008KT 28/17 A30 RMK A01 T02750171  RH  056%=      5-min Rain = 0
KJTS 040505Z 13007KT 27/17 A30 RMK A01 T02730171  RH  056%=      5-min Rain = 0
KJTS 040510Z 13007KT 27/17 A30 RMK A01 T02720171  RH  057%=      5-min Rain = 0
KJTS 040515Z 13007KT 27/17 A30 RMK A01 T02700171  RH  058%=      5-min Rain = 0
KJTS 040520Z 13007KT 27/17 A30 RMK A01 T02680172  RH  059%=      5-min Rain = 0
KJTS 040525Z 13006KT 27/17 A30 RMK A01 T02650172  RH  059%=      5-min Rain = 0
KJTS 040530Z 13006KT 26/17 A30 RMK A01 T02640172  RH  060%=      5-min Rain = 0
KJTS 040535Z 12006KT 26/17 A30 RMK A01 T02620173  RH  061%=      5-min Rain = 0
KJTS 040540Z 12006KT 26/18 A30 RMK A01 T02600175  RH  063%=      5-min Rain = 0
KJTS 040545Z 12007KT 26/18 A30 RMK A01 T02580177  RH  064%=      5-min Rain = 0
KJTS 040550Z 13006KT 26/18 A30 RMK A01 T02600177  RH  063%=      5-min Rain = 0
KJTS 040555Z 12006KT 26/18 A2999 RMK A01 T02580178  RH  064%=      5-min Rain = 0
KJTS 040600Z 12007KT 26/18 A2999 RMK A01 T02580178  RH  064%=      5-min Rain = 0
KJTS 040605Z 12006KT 26/18 A2999 RMK A01 T02600178  RH  064%=      5-min Rain = 0
KJTS 040610Z 12006KT 26/18 A2999 RMK A01 T02570178  RH  065%=      5-min Rain = 0
KJTS 040615Z 12007KT 26/18 A2999 RMK A01 T02570178  RH  065%=      5-min Rain = 0
KJTS 040620Z 12007KT 26/18 A2999 RMK A01 T02550177  RH  065%=      5-min Rain = 0
KJTS 040625Z 12006KT 25/18 A2999 RMK A01 T02540176  RH  066%=      5-min Rain = 0
KJTS 040630Z 13006KT 26/17 A2999 RMK A01 T02550174  RH  064%=      5-min Rain = 0
KJTS 040635Z 13006KT 25/17 A2999 RMK A01 T02540174  RH  064%=      5-min Rain = 0
KJTS 040640Z 12006KT 25/17 A2999 RMK A01 T02530173  RH  064%=      5-min Rain = 0
KJTS 040645Z 12006KT 25/17 A2999 RMK A01 T02510173  RH  065%=      5-min Rain = 0
KJTS 040650Z 12006KT 25/17 A2999 RMK A01 T02490173  RH  066%=      5-min Rain = 0
KJTS 040655Z 11005KT 25/17 A2998 RMK A01 T02480173  RH  067%=      5-min Rain = 0
KJTS 040700Z 11005KT 25/17 A2998 RMK A01 T02450173  RH  068%=      5-min Rain = 0
KJTS 040705Z 10005KT 24/17 A2998 RMK A01 T02420174  RH  069%=      5-min Rain = 0
KJTS 040710Z 09004KT 24/17 A2998 RMK A01 T02440172  RH  067%=      5-min Rain = 0
KJTS 040715Z 09004KT 25/17 A2998 RMK A01 T02470171  RH  066%=      5-min Rain = 0
KJTS 040720Z 09004KT 25/17 A2998 RMK A01 T02480170  RH  065%=      5-min Rain = 0
KJTS 040725Z 09004KT 25/17 A2998 RMK A01 T02510169  RH  063%=      5-min Rain = 0
KJTS 040730Z 09004KT 25/17 A2998 RMK A01 T02520169  RH  063%=      5-min Rain = 0
KJTS 040735Z 09004KT 25/17 A2998 RMK A01 T02490170  RH  065%=      5-min Rain = 0
KJTS 040740Z 10004KT 25/17 A2998 RMK A01 T02450170  RH  066%=      5-min Rain = 0
KJTS 040745Z 10004KT 25/17 A2998 RMK A01 T02450170  RH  066%=      5-min Rain = 0
KJTS 040750Z 11004KT 24/17 A2998 RMK A01 T02430171  RH  067%=      5-min Rain = 0
KJTS 040755Z 11005KT 24/17 A2998 RMK A01 T02390173  RH  070%=      5-min Rain = 0
KJTS 040800Z 11005KT 24/17 A2998 RMK A01 T02350174  RH  072%=      5-min Rain = 0
KJTS 040805Z 11004KT 24/17 A2998 RMK A01 T02360172  RH  071%=      5-min Rain = 0
KJTS 040810Z 11004KT 24/17 A2998 RMK A01 T02360172  RH  071%=      5-min Rain = 0
KJTS 040815Z 11004KT 24/17 A2998 RMK A01 T02350171  RH  071%=      5-min Rain = 0
KJTS 040820Z 11004KT 24/17 A2998 RMK A01 T02360169  RH  070%=      5-min Rain = 0
KJTS 040825Z 11003KT 24/17 A2998 RMK A01 T02370168  RH  069%=      5-min Rain = 0
KJTS 040830Z 11003KT 24/17 A2998 RMK A01 T02390167  RH  067%=      5-min Rain = 0
KJTS 040835Z 11003KT 24/17 A2998 RMK A01 T02400167  RH  067%=      5-min Rain = 0
KJTS 040840Z 10003KT 24/17 A2998 RMK A01 T02420165  RH  065%=      5-min Rain = 0
KJTS 040845Z 10003KT 24/16 A2998 RMK A01 T02430164  RH  064%=      5-min Rain = 0
KJTS 040850Z 09003KT 25/16 A2998 RMK A01 T02450162  RH  063%=      5-min Rain = 0
KJTS 040855Z 06003KT 25/17 A2998 RMK A01 T02450165  RH  064%=      5-min Rain = 0
KJTS 040900Z 07003KT 24/17 A2998 RMK A01 T02440166  RH  065%=      5-min Rain = 0
KJTS 040905Z 08003KT 24/17 A2998 RMK A01 T02430166  RH  065%=      5-min Rain = 0
KJTS 040910Z 09002KT 24/17 A2998 RMK A01 T02410166  RH  066%=      5-min Rain = 0
KJTS 040915Z 14002KT 24/17 A2998 RMK A01 T02370171  RH  070%=      5-min Rain = 0
KJTS 040920Z 15002KT 23/17 A2998 RMK A01 T02340173  RH  072%=      5-min Rain = 0
KJTS 040925Z 16002KT 23/17 A2998 RMK A01 T02330171  RH  072%=      5-min Rain = 0
KJTS 040930Z 16001KT 23/17 A2998 RMK A01 T02300169  RH  072%=      5-min Rain = 0
KJTS 040935Z 16000KT 23/17 A2998 RMK A01 T02270170  RH  074%=      5-min Rain = 0
KJTS 040940Z 16000KT 22/17 A2998 RMK A01 T02240172  RH  076%=      5-min Rain = 0
KJTS 040945Z 29002KT 22/17 A2998 RMK A01 T02200174  RH  079%=      5-min Rain = 0
KJTS 040950Z 29002KT 22/17 A2998 RMK A01 T02180174  RH  080%=      5-min Rain = 0
KJTS 040955Z 27002KT 22/17 A2998 RMK A01 T02190173  RH  079%=      5-min Rain = 0
KJTS 041000Z 25002KT 22/17 A2998 RMK A01 T02210172  RH  078%=      5-min Rain = 0
KJTS 041005Z 26003KT 22/17 A2998 RMK A01 T02200173  RH  079%=      5-min Rain = 0
KJTS 041010Z 27004KT 22/17 A2998 RMK A01 T02170167  RH  077%=      5-min Rain = 0
KJTS 041015Z 27004KT 22/17 A2998 RMK A01 T02160166  RH  077%=      5-min Rain = 0
KJTS 041020Z 28004KT 22/17 A2998 RMK A01 T02170166  RH  077%=      5-min Rain = 0
KJTS 041025Z 28003KT 22/17 A2998 RMK A01 T02170165  RH  076%=      5-min Rain = 0
KJTS 041030Z 27003KT 22/17 A2998 RMK A01 T02170165  RH  075%=      5-min Rain = 0
KJTS 041035Z 28005KT 22/16 A2998 RMK A01 T02170163  RH  075%=      5-min Rain = 0
KJTS 041040Z 28005KT 21/16 A2998 RMK A01 T02140164  RH  077%=      5-min Rain = 0
KJTS 041045Z 28004KT 21/16 A2998 RMK A01 T02120163  RH  077%=      5-min Rain = 0
KJTS 041050Z 28005KT 21/16 A2998 RMK A01 T02140162  RH  076%=      5-min Rain = 0
KJTS 041055Z 28005KT 22/16 A2998 RMK A01 T02170160  RH  074%=      5-min Rain = 0
KJTS 041100Z 28005KT 22/16 A2998 RMK A01 T02180160  RH  073%=      5-min Rain = 0
KJTS 041105Z 29005KT 22/16 A2998 RMK A01 T02160160  RH  074%=      5-min Rain = 0
KJTS 041110Z 29005KT 21/16 A2998 RMK A01 T02120160  RH  076%=      5-min Rain = 0
KJTS 041115Z 28006KT 21/16 A2998 RMK A01 T02060160  RH  079%=      5-min Rain = 0
KJTS 041120Z 27006KT 20/16 A2998 RMK A01 T02020160  RH  081%=      5-min Rain = 0
KJTS 041125Z 28007KT 20/16 A2998 RMK A01 T02000161  RH  082%=      5-min Rain = 0
KJTS 041130Z 28007KT 20/16 A2998 RMK A01 T01980161  RH  083%=      5-min Rain = 0
KJTS 041135Z 27007KT 20/16 A2998 RMK A01 T01970162  RH  084%=      5-min Rain = 0
KJTS 041140Z 27007KT 20/16 A2999 RMK A01 T01970162  RH  084%=      5-min Rain = 0
KJTS 041145Z 26006KT 20/16 A2999 RMK A01 T01970162  RH  084%=      5-min Rain = 0
KJTS 041150Z 26006KT 20/16 A2999 RMK A01 T01970163  RH  084%=      5-min Rain = 0
KJTS 041155Z 27006KT 20/16 A2999 RMK A01 T01980163  RH  084%=      5-min Rain = 0
KJTS 041200Z 26004KT 20/16 A2999 RMK A01 T01980163  RH  084%=      5-min Rain = 0
KJTS 041205Z 26005KT 20/16 A2999 RMK A01 T01970162  RH  084%=      5-min Rain = 0
KJTS 041210Z 26006KT 20/16 A2999 RMK A01 T01990162  RH  083%=      5-min Rain = 0
KJTS 041215Z 26006KT 20/16 A2999 RMK A01 T02030162  RH  081%=      5-min Rain = 0
KJTS 041220Z 26007KT 21/16 A30 RMK A01 T02070163  RH  079%=      5-min Rain = 0
KJTS 041225Z 26007KT 21/16 A30 RMK A01 T02110163  RH  078%=      5-min Rain = 0
KJTS 041230Z 26007KT 21/16 A30 RMK A01 T02130163  RH  077%=      5-min Rain = 0
KJTS 041235Z 27006KT 22/16 A30 RMK A01 T02150163  RH  076%=      5-min Rain = 0
KJTS 041240Z 27005KT 22/16 A2999 RMK A01 T02160163  RH  075%=      5-min Rain = 0
KJTS 041245Z 27005KT 22/16 A30 RMK A01 T02190163  RH  074%=      5-min Rain = 0
KJTS 041250Z 27005KT 22/16 A30 RMK A01 T02210164  RH  074%=      5-min Rain = 0
KJTS 041255Z 27006KT 22/16 A30 RMK A01 T02240164  RH  072%=      5-min Rain = 0
KJTS 041300Z 27006KT 23/16 A30 RMK A01 T02260163  RH  071%=      5-min Rain = 0
KJTS 041305Z 28005KT 23/16 A30 RMK A01 T02290164  RH  070%=      5-min Rain = 0
KJTS 041310Z 28004KT 23/17 A30 RMK A01 T02340165  RH  069%=      5-min Rain = 0
KJTS 041315Z 27004KT 24/17 A30 RMK A01 T02390167  RH  067%=      5-min Rain = 0
KJTS 041320Z 28004KT 24/17 A30 RMK A01 T02430166  RH  065%=      5-min Rain = 0
KJTS 041325Z 28005KT 25/17 A30 RMK A01 T02480165  RH  063%=      5-min Rain = 0
KJTS 041330Z 27004KT 25/17 A30 RMK A01 T02520165  RH  061%=      5-min Rain = 0
KJTS 041335Z 26005KT 26/16 A30 RMK A01 T02580162  RH  058%=      5-min Rain = 0
KJTS 041340Z 27007KT 26/16 A30 RMK A01 T02600158  RH  056%=      5-min Rain = 0
KJTS 041345Z 27006KT 26/16 A30 RMK A01 T02640158  RH  054%=      5-min Rain = 0
KJTS 041350Z 26006KT 27/16 A30 RMK A01 T02690159  RH  053%=      5-min Rain = 0
KJTS 041355Z 28005KT 27/16 A30 RMK A01 T02730158  RH  052%=      5-min Rain = 0
KJTS 041400Z 30005KT 28/16 A30 RMK A01 T02780156  RH  050%=      5-min Rain = 0
KJTS 041405Z 29005KT 28/15 A30 RMK A01 T02810154  RH  048%=      5-min Rain = 0
KJTS 041410Z 27006KT 28/15 A30 RMK A01 T02830153  RH  047%=      5-min Rain = 0
KJTS 041415Z 27007KT 29/15 A30 RMK A01 T02860151  RH  046%=      5-min Rain = 0
KJTS 041420Z 28005KT 29/16 A30 RMK A01 T02900155  RH  046%=      5-min Rain = 0
KJTS 041425Z 28004KT 29/16 A30 RMK A01 T02930156  RH  046%=      5-min Rain = 0
KJTS 041430Z 28006KT 30/16 A30 RMK A01 T02950155  RH  045%=      5-min Rain = 0
KJTS 041435Z 28007KT 30/16 A30 RMK A01 T02950156  RH  045%=      5-min Rain = 0
KJTS 041440Z 27007KT 30/16 A30 RMK A01 T02980161  RH  046%=      5-min Rain = 0
KJTS 041445Z 28006KT 30/16 A30 RMK A01 T03010162  RH  045%=      5-min Rain = 0
KJTS 041450Z 28006KT 30/16 A30 RMK A01 T03040160  RH  044%=      5-min Rain = 0
KJTS 041455Z 29006KT 31/16 A30 RMK A01 T03050162  RH  044%=      5-min Rain = 0
KJTS 041500Z 29005KT 31/16 A30 RMK A01 T03090161  RH  043%=      5-min Rain = 0
KJTS 041505Z 29007KT 31/15 A30 RMK A01 T03100150  RH  040%=      5-min Rain = 0
KJTS 041510Z 29007KT 31/15 A30 RMK A01 T03120145  RH  038%=      5-min Rain = 0
KJTS 041515Z 29007KT 31/15 A30 RMK A01 T03130146  RH  038%=      5-min Rain = 0
KJTS 041520Z 30007KT 32/15 A30 RMK A01 T03160148  RH  038%=      5-min Rain = 0
KJTS 041525Z 29005KT 32/15 A30 RMK A01 T03160151  RH  038%=      5-min Rain = 0
KJTS 041530Z 26006KT 32/15 A30 RMK A01 T03210146  RH  036%=      5-min Rain = 0
KJTS 041535Z 27006KT 32/15 A30 RMK A01 T03240146  RH  036%=      5-min Rain = 0
KJTS 041540Z 27006KT 33/15 A30 RMK A01 T03260147  RH  035%=      5-min Rain = 0
KJTS 041545Z 29007KT 33/15 A30 RMK A01 T03270146  RH  035%=      5-min Rain = 0
KJTS 041550Z 28007G12KT 33/15 A30 RMK A01 T03300149  RH  035%=      5-min Rain = 0
KJTS 041555Z 26006KT 33/15 A30 RMK A01 T03320151  RH  035%=      5-min Rain = 0
KJTS 041600Z 27006G11KT 33/15 A30 RMK A01 T03340152  RH  035%=      5-min Rain = 0
KJTS 041605Z 25007KT 33/15 A30 RMK A01 T03340151  RH  035%=      5-min Rain = 0
KJTS 041610Z 28008KT 33/15 A30 RMK A01 T03340148  RH  034%=      5-min Rain = 0
KJTS 041615Z 27008G13KT 34/15 A30 RMK A01 T03360150  RH  034%=      5-min Rain = 0
KJTS 041620Z 26007KT 34/15 A30 RMK A01 T03370150  RH  034%=      5-min Rain = 0
KJTS 041625Z 26009KT 34/15 A30 RMK A01 T03380150  RH  034%=      5-min Rain = 0
KJTS 041630Z 27007G13KT 34/15 A30 RMK A01 T03400149  RH  033%=      5-min Rain = 0
KJTS 041635Z 26009KT 34/15 A30 RMK A01 T03400149  RH  033%=      5-min Rain = 0
KJTS 041640Z 27006KT 34/15 A30 RMK A01 T03430149  RH  033%=      5-min Rain = 0
KJTS 041645Z 27005KT 34/15 A30 RMK A01 T03430148  RH  032%=      5-min Rain = 0
KJTS 041650Z 26007KT 35/15 A30 RMK A01 T03450147  RH  032%=      5-min Rain = 0
KJTS 041655Z 28005KT 35/15 A30 RMK A01 T03470149  RH  032%=      5-min Rain = 0
KJTS 041700Z 28008KT 35/15 A30 RMK A01 T03490148  RH  031%=      5-min Rain = 0
KJTS 041705Z 28005G10KT 35/15 A30 RMK A01 T03500146  RH  031%=      5-min Rain = 0
KJTS 041710Z 26003KT 35/15 A30 RMK A01 T03530149  RH  031%=      5-min Rain = 0
KJTS 041715Z 24005G10KT 35/15 A30 RMK A01 T03540148  RH  031%=      5-min Rain = 0
KJTS 041720Z 30007KT 35/14 A30 RMK A01 T03540144  RH  030%=      5-min Rain = 0
KJTS 041725Z 33004G9KT 35/14 A30 RMK A01 T03530141  RH  029%=      5-min Rain = 0
KJTS 041730Z 30002KT 35/14 A30 RMK A01 T03540136  RH  028%=      5-min Rain = 0
KJTS 041735Z 31004KT 36/14 A30 RMK A01 T03580144  RH  029%=      5-min Rain = 0
KJTS 041740Z 33005KT 36/14 A2999 RMK A01 T03600144  RH  029%=      5-min Rain = 0
KJTS 041745Z 34006KT 36/14 A2999 RMK A01 T03590142  RH  029%=      5-min Rain = 0
KJTS 041750Z 30004KT 36/14 A2999 RMK A01 T03610142  RH  028%=      5-min Rain = 0
KJTS 041755Z 28006KT 36/14 A2999 RMK A01 T03620143  RH  028%=      5-min Rain = 0
KJTS 041800Z 28004KT 36/14 A2999 RMK A01 T03610141  RH  028%=      5-min Rain = 0
KJTS 041805Z 24004KT 36/14 A2999 RMK A01 T03620136  RH  027%=      5-min Rain = 0
KJTS 041810Z 24003KT 36/14 A2999 RMK A01 T03620136  RH  027%=      5-min Rain = 0
KJTS 041815Z 21006KT 36/14 A2998 RMK A01 T03620135  RH  027%=      5-min Rain = 0
KJTS 041820Z 22004KT 37/14 A2998 RMK A01 T03650140  RH  027%=      5-min Rain = 0
KJTS 041825Z 23004KT 37/14 A2998 RMK A01 T03690144  RH  027%=      5-min Rain = 0
KJTS 041830Z 21006G12KT 36/14 A2998 RMK A01 T03640138  RH  027%=      5-min Rain = 0
KJTS 041835Z 21005KT 36/14 A2998 RMK A01 T03640141  RH  028%=      5-min Rain = 0
KJTS 041840Z 21004KT 37/14 A2998 RMK A01 T03660140  RH  027%=      5-min Rain = 0
KJTS 041845Z 13004KT 37/14 A2998 RMK A01 T03660140  RH  027%=      5-min Rain = 0
KJTS 041850Z 10005KT 37/15 A2998 RMK A01 T03680145  RH  028%=      5-min Rain = 0
KJTS 041855Z 11006KT 37/15 A2997 RMK A01 T03690145  RH  028%=      5-min Rain = 0
KJTS 041900Z 10006G12KT 37/15 A2997 RMK A01 T03700146  RH  028%=      5-min Rain = 0
KJTS 041905Z 11007KT 37/15 A2997 RMK A01 T03690145  RH  028%=      5-min Rain = 0
KJTS 041910Z 12008KT 37/14 A2997 RMK A01 T03680142  RH  027%=      5-min Rain = 0
KJTS 041915Z 10005KT 37/14 A2997 RMK A01 T03690143  RH  027%=      5-min Rain = 0
KJTS 041920Z 14007KT 37/14 A2996 RMK A01 T03700142  RH  027%=      5-min Rain = 0
KJTS 041925Z 13007G15KT 37/14 A2996 RMK A01 T03700142  RH  027%=      5-min Rain = 0
KJTS 041930Z 14006KT 37/14 A2996 RMK A01 T03710142  RH  027%=      5-min Rain = 0
KJTS 041935Z 12007G12KT 37/15 A2996 RMK A01 T03720145  RH  027%=      5-min Rain = 0
KJTS 041940Z 09006G12KT 37/14 A2996 RMK A01 T03710142  RH  027%=      5-min Rain = 0
KJTS 041945Z 07004G11KT 37/14 A2995 RMK A01 T03670141  RH  027%=      5-min Rain = 0
KJTS 041950Z 03004G9KT 37/14 A2995 RMK A01 T03720142  RH  027%=      5-min Rain = 0
KJTS 041955Z 05004G10KT 37/14 A2995 RMK A01 T03690144  RH  027%=      5-min Rain = 0
KJTS 042000Z 06005KT 37/15 A2995 RMK A01 T03710146  RH  028%=      5-min Rain = 0
KJTS 042005Z 09007KT 37/15 A2995 RMK A01 T03720146  RH  027%=      5-min Rain = 0
KJTS 042010Z 10007KT 37/14 A2995 RMK A01 T03710143  RH  027%=      5-min Rain = 0
KJTS 042015Z 11006KT 37/14 A2995 RMK A01 T03670136  RH  026%=      5-min Rain = 0
KJTS 042020Z 10006KT 37/14 A2994 RMK A01 T03690140  RH  027%=      5-min Rain = 0
KJTS 042025Z 11007KT 37/15 A2994 RMK A01 T03730145  RH  027%=      5-min Rain = 0
KJTS 042030Z 12006KT 37/14 A2994 RMK A01 T03700141  RH  027%=      5-min Rain = 0
KJTS 042035Z 13005G11KT 37/14 A2994 RMK A01 T03710138  RH  026%=      5-min Rain = 0
KJTS 042040Z 10004G10KT 37/14 A2993 RMK A01 T03690139  RH  027%=      5-min Rain = 0
KJTS 042045Z 07007KT 37/14 A2993 RMK A01 T03680140  RH  027%=      5-min Rain = 0
KJTS 042050Z 06006KT 37/15 A2993 RMK A01 T03690146  RH  028%=      5-min Rain = 0
KJTS 042055Z 09007KT 38/15 A2993 RMK A01 T03750147  RH  027%=      5-min Rain = 0
KJTS 042100Z 10006KT 38/14 A2992 RMK A01 T03750142  RH  026%=      5-min Rain = 0
KJTS 042105Z 10006KT 37/14 A2992 RMK A01 T03720140  RH  026%=      5-min Rain = 0
KJTS 042110Z 07007KT 37/15 A2992 RMK A01 T03740145  RH  027%=      5-min Rain = 0
KJTS 042115Z 09009KT 37/15 A2991 RMK A01 T03730145  RH  027%=      5-min Rain = 0
KJTS 042120Z 09010KT 37/14 A2991 RMK A01 T03730141  RH  026%=      5-min Rain = 0
KJTS 042125Z 11006KT 37/14 A2991 RMK A01 T03730141  RH  026%=      5-min Rain = 0
KJTS 042130Z 11007G13KT 38/14 A2991 RMK A01 T03750144  RH  027%=      5-min Rain = 0
KJTS 042135Z 08005KT 38/14 A2991 RMK A01 T03760140  RH  026%=      5-min Rain = 0
KJTS 042140Z 08006KT 38/14 A299 RMK A01 T03750142  RH  026%=      5-min Rain = 0
KJTS 042145Z 10009KT 38/15 A299 RMK A01 T03780147  RH  027%=      5-min Rain = 0
KJTS 042150Z 11009KT 38/14 A299 RMK A01 T03750142  RH  026%=      5-min Rain = 0
KJTS 042155Z 13005G10KT 37/14 A299 RMK A01 T03730136  RH  025%=      5-min Rain = 0
KJTS 042200Z 11005G10KT 38/14 A2989 RMK A01 T03750140  RH  026%=      5-min Rain = 0
KJTS 042205Z 09006G11KT 38/15 A2989 RMK A01 T03760145  RH  027%=      5-min Rain = 0
KJTS 042210Z 11008KT 38/14 A2989 RMK A01 T03760143  RH  026%=      5-min Rain = 0
KJTS 042215Z 09007KT 37/14 A2989 RMK A01 T03740141  RH  026%=      5-min Rain = 0
KJTS 042220Z 09003KT 38/15 A2989 RMK A01 T03780145  RH  026%=      5-min Rain = 0
KJTS 042225Z 15006KT 38/15 A2989 RMK A01 T03820145  RH  026%=      5-min Rain = 0
KJTS 042230Z 13006G11KT 38/14 A2988 RMK A01 T03800144  RH  026%=      5-min Rain = 0
KJTS 042235Z 10007KT 38/14 A2988 RMK A01 T03770144  RH  026%=      5-min Rain = 0
KJTS 042240Z 11005KT 38/14 A2988 RMK A01 T03760143  RH  026%=      5-min Rain = 0
KJTS 042245Z 06003KT 38/14 A2988 RMK A01 T03780138  RH  025%=      5-min Rain = 0
KJTS 042250Z 08005KT 38/14 A2987 RMK A01 T03760143  RH  026%=      5-min Rain = 0
KJTS 042255Z 09007KT 38/14 A2987 RMK A01 T03770144  RH  026%=      5-min Rain = 0
KJTS 042300Z 10005G11KT 37/14 A2987 RMK A01 T03740139  RH  026%=      5-min Rain = 0
KJTS 042305Z 10005KT 37/14 A2987 RMK A01 T03680142  RH  027%=      5-min Rain = 0
KJTS 042310Z 09007KT 37/15 A2987 RMK A01 T03690146  RH  028%=      5-min Rain = 0
KJTS 042315Z 08005KT 37/14 A2987 RMK A01 T03720143  RH  027%=      5-min Rain = 0
KJTS 042320Z 07004KT 37/14 A2987 RMK A01 T03740139  RH  026%=      5-min Rain = 0
KJTS 042325Z 09003KT 37/14 A2987 RMK A01 T03740135  RH  025%=      5-min Rain = 0
KJTS 042330Z 10006KT 37/14 A2987 RMK A01 T03680141  RH  027%=      5-min Rain = 0
KJTS 042335Z 10007KT 36/15 A2987 RMK A01 T03630148  RH  029%=      5-min Rain = 0
KJTS 042340Z 08006KT 36/15 A2987 RMK A01 T03610146  RH  029%=      5-min Rain = 0
KJTS 042345Z 08005KT 36/15 A2987 RMK A01 T03580149  RH  030%=      5-min Rain = 0
KJTS 042350Z 08006KT 36/15 A2987 RMK A01 T03560150  RH  031%=      5-min Rain = 0
KJTS 042355Z 07007KT 35/15 A2987 RMK A01 T03540145  RH  030%=      5-min Rain = 0
KJTS 050000Z 06005KT 35/15 A2987 RMK A01 T03530147  RH  031%=      5-min Rain = 0
KJTS 050005Z 07006KT 35/15 A2987 RMK A01 T03510148  RH  031%=      5-min Rain = 0
KJTS 050010Z 07006KT 35/15 A2987 RMK A01 T03510148  RH  031%=      5-min Rain = 0
KJTS 050015Z 07006KT 35/15 A2987 RMK A01 T03500151  RH  032%=      5-min Rain = 0
KJTS 050020Z 08006KT 35/15 A2987 RMK A01 T03490153  RH  033%=      5-min Rain = 0
KJTS 050025Z 08005KT 35/16 A2987 RMK A01 T03470155  RH  033%=      5-min Rain = 0
KJTS 050030Z 06005KT 35/16 A2987 RMK A01 T03460156  RH  034%=      5-min Rain = 0
KJTS 050035Z 06005KT 34/16 A2987 RMK A01 T03440157  RH  034%=      5-min Rain = 0
KJTS 050040Z 06005KT 34/16 A2987 RMK A01 T03430157  RH  034%=      5-min Rain = 0
KJTS 050045Z 06005KT 34/16 A2987 RMK A01 T03430155  RH  034%=      5-min Rain = 0
KJTS 050050Z 06006KT 34/15 A2987 RMK A01 T03430152  RH  033%=      5-min Rain = 0
KJTS 050055Z 06006KT 34/16 A2988 RMK A01 T03420155  RH  034%=      5-min Rain = 0
KJTS 050100Z 06006KT 34/16 A2988 RMK A01 T03400157  RH  035%=      5-min Rain = 0
KJTS 050105Z 06008KT 34/16 A2989 RMK A01 T03380160  RH  036%=      5-min Rain = 0
KJTS 050110Z 05009G19KT 34/16 A2989 RMK A01 T03370160  RH  036%=      5-min Rain = 0
KJTS 050115Z 04017G25KT 33/17 A299 RMK A01 T03250166  RH  041%=      5-min Rain = 0
KJTS 050120Z 05019G27KT 29/18 A2991 RMK A01 T02940182  RH  054%=      5-min Rain = 0
KJTS 050125Z 05014G23KT 28/19 A2992 RMK A01 T02810187  RH  060%=      5-min Rain = 0
KJTS 050130Z 04014G21KT 28/19 A2992 RMK A01 T02760187  RH  062%=      5-min Rain = 0
KJTS 050135Z 04013G19KT 27/19 A2993 RMK A01 T02730187  RH  063%=      5-min Rain = 0
KJTS 050140Z 05012G18KT 27/19 A2993 RMK A01 T02720188  RH  063%=      5-min Rain = 0
KJTS 050145Z 04012G19KT 27/19 A2992 RMK A01 T02700188  RH  064%=      5-min Rain = 0
KJTS 050150Z 05011G17KT 27/19 A2993 RMK A01 T02700187  RH  064%=      5-min Rain = 0
KJTS 050155Z 05009KT 27/19 A2993 RMK A01 T02700188  RH  064%=      5-min Rain = 0
KJTS 050200Z 05010KT 27/19 A2993 RMK A01 T02690187  RH  064%=      5-min Rain = 0
KJTS 050205Z 05010KT 27/19 A2993 RMK A01 T02690188  RH  064%=      5-min Rain = 0
KJTS 050210Z 05008KT 27/19 A2992 RMK A01 T02680188  RH  065%=      5-min Rain = 0
KJTS 050215Z 06008KT 27/19 A2992 RMK A01 T02690188  RH  065%=      5-min Rain = 0
KJTS 050220Z 06008KT 27/19 A2992 RMK A01 T02690188  RH  065%=      5-min Rain = 0
KJTS 050225Z 05007KT 27/19 A2992 RMK A01 T02690188  RH  065%=      5-min Rain = 0
KJTS 050230Z 05006KT 27/19 A2992 RMK A01 T02680189  RH  065%=      5-min Rain = 0
KJTS 050235Z 06006KT 27/19 A2992 RMK A01 T02680189  RH  066%=      5-min Rain = 0
KJTS 050240Z 06006KT 27/19 A2992 RMK A01 T02670190  RH  066%=      5-min Rain = 0
KJTS 050245Z 07005KT 27/19 A2992 RMK A01 T02660190  RH  067%=      5-min Rain = 0
KJTS 050250Z 07005KT 26/19 A2992 RMK A01 T02640190  RH  068%=      5-min Rain = 0
KJTS 050255Z 07005KT 26/19 A2992 RMK A01 T02620191  RH  069%=      5-min Rain = 0
KJTS 050300Z 06004KT 26/19 A2991 RMK A01 T02610191  RH  069%=      5-min Rain = 0
KJTS 050305Z 06004KT 26/19 A2992 RMK A01 T02600191  RH  069%=      5-min Rain = 0
KJTS 050310Z 07002KT 26/19 A2992 RMK A01 T02590191  RH  070%=      5-min Rain = 0
KJTS 050315Z 08000KT 26/19 A2992 RMK A01 T02580192  RH  071%=      5-min Rain = 0
KJTS 050320Z 08000KT 26/19 A2992 RMK A01 T02590191  RH  070%=      5-min Rain = 0
KJTS 050325Z 08000KT 26/19 A2992 RMK A01 T02580191  RH  071%=      5-min Rain = 0
KJTS 050330Z 08001KT 26/19 A2992 RMK A01 T02560191  RH  071%=      5-min Rain = 0
KJTS 050335Z 04002KT 26/19 A2992 RMK A01 T02580191  RH  070%=      5-min Rain = 0
KJTS 050340Z 03002KT 26/19 A2992 RMK A01 T02580190  RH  070%=      5-min Rain = 0
KJTS 050345Z 03001KT 26/19 A2992 RMK A01 T02590190  RH  070%=      5-min Rain = 0
KJTS 050350Z 03001KT 26/19 A2992 RMK A01 T02580190  RH  070%=      5-min Rain = 0
KJTS 050355Z 03001KT 26/19 A2992 RMK A01 T02550191  RH  071%=      5-min Rain = 0
KJTS 050400Z 03001KT 25/19 A2992 RMK A01 T02540191  RH  072%=      5-min Rain = 0
KJTS 050405Z 03002KT 25/19 A2992 RMK A01 T02540190  RH  072%=      5-min Rain = 0
KJTS 050410Z 03001KT 25/19 A2992 RMK A01 T02530191  RH  072%=      5-min Rain = 0
KJTS 050415Z 32002KT 25/19 A2992 RMK A01 T02470194  RH  076%=      5-min Rain = 0
KJTS 050420Z 33003KT 25/19 A2992 RMK A01 T02470191  RH  075%=      5-min Rain = 0
KJTS 050425Z 35003KT 25/19 A2992 RMK A01 T02490190  RH  074%=      5-min Rain = 0
KJTS 050430Z 01003KT 25/19 A2992 RMK A01 T02520189  RH  072%=      5-min Rain = 0
KJTS 050435Z 03004KT 25/19 A2992 RMK A01 T02540190  RH  072%=      5-min Rain = 0
KJTS 050440Z 03004KT 26/19 A2992 RMK A01 T02550189  RH  071%=      5-min Rain = 0
KJTS 050445Z 04004KT 25/19 A2992 RMK A01 T02540189  RH  071%=      5-min Rain = 0
KJTS 050450Z 04004KT 25/19 A2992 RMK A01 T02540190  RH  072%=      5-min Rain = 0
KJTS 050455Z 03004KT 25/19 A2992 RMK A01 T02540191  RH  072%=      5-min Rain = 0

Page generated in 0.0152 seconds.